sensor_id;sensor_type;location;lat;lon;timestamp;temperature;humidity
17172;DHT22;8701;50.150;8.756;2024-02-21T00:00:47;10.10;99.90
17172;DHT22;8701;50.150;8.756;2024-02-21T00:04:51;10.10;99.90
17172;DHT22;8701;50.150;8.756;2024-02-21T00:08:53;9.90;99.90
17172;DHT22;8701;50.150;8.756;2024-02-21T00:12:55;9.80;99.90
17172;DHT22;8701;50.150;8.756;2024-02-21T00:16:57;9.70;99.90
17172;DHT22;8701;50.150;8.756;2024-02-21T00:21:01;9.70;99.90
17172;DHT22;8701;50.150;8.756;2024-02-21T00:25:04;9.70;99.90
17172;DHT22;8701;50.150;8.756;2024-02-21T00:29:07;9.70;99.90
17172;DHT22;8701;50.150;8.756;2024-02-21T00:33:09;9.70;99.90
17172;DHT22;8701;50.150;8.756;2024-02-21T00:37:12;9.60;99.90
17172;DHT22;8701;50.150;8.756;2024-02-21T00:41:15;9.50;99.90
17172;DHT22;8701;50.150;8.756;2024-02-21T00:45:17;9.50;99.90
17172;DHT22;8701;50.150;8.756;2024-02-21T00:49:19;9.50;99.90
17172;DHT22;8701;50.150;8.756;2024-02-21T00:53:23;9.50;99.90
17172;DHT22;8701;50.150;8.756;2024-02-21T00:57:25;9.50;99.90
17172;DHT22;8701;50.150;8.756;2024-02-21T01:01:28;9.30;99.90
17172;DHT22;8701;50.150;8.756;2024-02-21T01:05:30;9.20;99.90
17172;DHT22;8701;50.150;8.756;2024-02-21T01:09:33;9.10;99.90
17172;DHT22;8701;50.150;8.756;2024-02-21T01:13:36;9.10;99.90
17172;DHT22;8701;50.150;8.756;2024-02-21T01:17:38;9.00;99.90
17172;DHT22;8701;50.150;8.756;2024-02-21T01:21:41;9.00;99.90
17172;DHT22;8701;50.150;8.756;2024-02-21T01:25:45;9.00;99.90
17172;DHT22;8701;50.150;8.756;2024-02-21T01:29:47;8.90;99.90
17172;DHT22;8701;50.150;8.756;2024-02-21T01:33:50;9.00;99.90
17172;DHT22;8701;50.150;8.756;2024-02-21T01:37:53;9.00;99.90
17172;DHT22;8701;50.150;8.756;2024-02-21T01:41:57;9.20;99.90
17172;DHT22;8701;50.150;8.756;2024-02-21T01:45:59;9.30;99.90
17172;DHT22;8701;50.150;8.756;2024-02-21T01:50:02;9.40;99.90
17172;DHT22;8701;50.150;8.756;2024-02-21T01:54:05;9.40;99.90
17172;DHT22;8701;50.150;8.756;2024-02-21T01:58:09;9.40;99.90
17172;DHT22;8701;50.150;8.756;2024-02-21T02:02:11;9.30;99.90
17172;DHT22;8701;50.150;8.756;2024-02-21T02:06:14;9.30;99.90
17172;DHT22;8701;50.150;8.756;2024-02-21T02:10:16;9.30;99.90
17172;DHT22;8701;50.150;8.756;2024-02-21T02:14:20;9.20;99.90
17172;DHT22;8701;50.150;8.756;2024-02-21T02:18:22;9.10;99.90
17172;DHT22;8701;50.150;8.756;2024-02-21T02:22:28;9.10;99.90
17172;DHT22;8701;50.150;8.756;2024-02-21T02:26:32;9.10;99.90
17172;DHT22;8701;50.150;8.756;2024-02-21T02:30:35;9.20;99.90
17172;DHT22;8701;50.150;8.756;2024-02-21T02:34:38;9.20;99.90
17172;DHT22;8701;50.150;8.756;2024-02-21T02:38:40;9.20;99.90
17172;DHT22;8701;50.150;8.756;2024-02-21T02:42:44;9.10;99.90
17172;DHT22;8701;50.150;8.756;2024-02-21T02:46:46;9.30;99.90
17172;DHT22;8701;50.150;8.756;2024-02-21T02:50:48;9.30;99.90
17172;DHT22;8701;50.150;8.756;2024-02-21T02:54:51;9.30;99.90
17172;DHT22;8701;50.150;8.756;2024-02-21T02:58:57;9.30;99.90
17172;DHT22;8701;50.150;8.756;2024-02-21T03:02:59;9.30;99.90
17172;DHT22;8701;50.150;8.756;2024-02-21T03:07:02;9.40;99.90
17172;DHT22;8701;50.150;8.756;2024-02-21T03:11:04;9.50;99.90
17172;DHT22;8701;50.150;8.756;2024-02-21T03:15:09;9.60;99.90
17172;DHT22;8701;50.150;8.756;2024-02-21T03:19:11;9.60;99.90
17172;DHT22;8701;50.150;8.756;2024-02-21T03:23:13;9.60;99.90
17172;DHT22;8701;50.150;8.756;2024-02-21T03:27:16;9.60;99.90
17172;DHT22;8701;50.150;8.756;2024-02-21T03:31:19;9.50;99.90
17172;DHT22;8701;50.150;8.756;2024-02-21T03:35:21;9.40;99.90
17172;DHT22;8701;50.150;8.756;2024-02-21T03:39:27;9.40;99.90
17172;DHT22;8701;50.150;8.756;2024-02-21T03:43:32;9.30;99.90
17172;DHT22;8701;50.150;8.756;2024-02-21T03:47:36;9.40;99.90
17172;DHT22;8701;50.150;8.756;2024-02-21T03:51:38;9.30;99.90
17172;DHT22;8701;50.150;8.756;2024-02-21T03:55:40;9.40;99.90
17172;DHT22;8701;50.150;8.756;2024-02-21T03:59:43;9.30;99.90
17172;DHT22;8701;50.150;8.756;2024-02-21T04:03:47;9.30;99.90
17172;DHT22;8701;50.150;8.756;2024-02-21T04:07:49;9.40;99.90
17172;DHT22;8701;50.150;8.756;2024-02-21T04:11:52;9.40;99.90
17172;DHT22;8701;50.150;8.756;2024-02-21T04:15:54;9.40;99.90
17172;DHT22;8701;50.150;8.756;2024-02-21T04:20:03;9.50;99.90
17172;DHT22;8701;50.150;8.756;2024-02-21T04:24:08;9.40;99.90
17172;DHT22;8701;50.150;8.756;2024-02-21T04:28:10;9.40;99.90
17172;DHT22;8701;50.150;8.756;2024-02-21T04:32:13;9.40;99.90
17172;DHT22;8701;50.150;8.756;2024-02-21T04:36:16;9.40;99.90
17172;DHT22;8701;50.150;8.756;2024-02-21T04:40:18;9.40;99.90
17172;DHT22;8701;50.150;8.756;2024-02-21T04:44:21;9.40;99.90
17172;DHT22;8701;50.150;8.756;2024-02-21T04:48:23;9.40;99.90
17172;DHT22;8701;50.150;8.756;2024-02-21T04:52:27;9.40;99.90
17172;DHT22;8701;50.150;8.756;2024-02-21T04:56:29;9.40;99.90
17172;DHT22;8701;50.150;8.756;2024-02-21T05:00:31;9.30;99.90
17172;DHT22;8701;50.150;8.756;2024-02-21T05:04:34;9.40;99.90
17172;DHT22;8701;50.150;8.756;2024-02-21T05:08:40;9.20;99.90
17172;DHT22;8701;50.150;8.756;2024-02-21T05:12:42;9.20;99.90
17172;DHT22;8701;50.150;8.756;2024-02-21T05:16:44;9.10;99.90
17172;DHT22;8701;50.150;8.756;2024-02-21T05:20:46;9.00;99.90
17172;DHT22;8701;50.150;8.756;2024-02-21T05:24:50;9.00;99.90
17172;DHT22;8701;50.150;8.756;2024-02-21T05:28:52;8.90;99.90
17172;DHT22;8701;50.150;8.756;2024-02-21T05:32:55;8.90;99.90
17172;DHT22;8701;50.150;8.756;2024-02-21T05:36:57;8.80;99.90
17172;DHT22;8701;50.150;8.756;2024-02-21T05:41:02;8.90;99.90
17172;DHT22;8701;50.150;8.756;2024-02-21T05:45:05;8.80;99.90
17172;DHT22;8701;50.150;8.756;2024-02-21T05:49:07;8.80;99.90
17172;DHT22;8701;50.150;8.756;2024-02-21T05:53:10;8.90;99.90
17172;DHT22;8701;50.150;8.756;2024-02-21T05:57:13;8.90;99.90
17172;DHT22;8701;50.150;8.756;2024-02-21T06:01:15;9.00;99.90
17172;DHT22;8701;50.150;8.756;2024-02-21T06:05:18;8.90;99.90
17172;DHT22;8701;50.150;8.756;2024-02-21T06:09:21;8.90;99.90
17172;DHT22;8701;50.150;8.756;2024-02-21T06:13:25;8.90;99.90
17172;DHT22;8701;50.150;8.756;2024-02-21T06:17:27;8.90;99.90
17172;DHT22;8701;50.150;8.756;2024-02-21T06:21:29;8.90;99.90
17172;DHT22;8701;50.150;8.756;2024-02-21T06:25:32;8.90;99.90
17172;DHT22;8701;50.150;8.756;2024-02-21T06:29:36;8.80;99.90
17172;DHT22;8701;50.150;8.756;2024-02-21T06:33:38;8.80;99.90
17172;DHT22;8701;50.150;8.756;2024-02-21T06:37:40;8.80;99.90
17172;DHT22;8701;50.150;8.756;2024-02-21T06:41:42;8.90;99.90
17172;DHT22;8701;50.150;8.756;2024-02-21T06:45:46;8.80;99.90
17172;DHT22;8701;50.150;8.756;2024-02-21T06:49:51;8.80;99.90
17172;DHT22;8701;50.150;8.756;2024-02-21T06:53:54;8.70;99.90
17172;DHT22;8701;50.150;8.756;2024-02-21T06:57:56;8.60;99.90
17172;DHT22;8701;50.150;8.756;2024-02-21T07:02:00;8.50;99.90
17172;DHT22;8701;50.150;8.756;2024-02-21T07:06:03;8.50;99.90
17172;DHT22;8701;50.150;8.756;2024-02-21T07:10:06;8.50;99.90
17172;DHT22;8701;50.150;8.756;2024-02-21T07:14:08;8.50;99.90
17172;DHT22;8701;50.150;8.756;2024-02-21T07:18:12;8.70;99.90
17172;DHT22;8701;50.150;8.756;2024-02-21T07:22:14;8.90;99.90
17172;DHT22;8701;50.150;8.756;2024-02-21T07:26:16;9.00;99.90
17172;DHT22;8701;50.150;8.756;2024-02-21T07:30:19;9.00;99.90
17172;DHT22;8701;50.150;8.756;2024-02-21T07:34:22;9.10;99.90
17172;DHT22;8701;50.150;8.756;2024-02-21T07:38:24;9.20;99.90
17172;DHT22;8701;50.150;8.756;2024-02-21T07:42:27;9.30;99.90
17172;DHT22;8701;50.150;8.756;2024-02-21T07:46:29;9.40;99.90
17172;DHT22;8701;50.150;8.756;2024-02-21T07:50:33;9.50;99.90
17172;DHT22;8701;50.150;8.756;2024-02-21T07:54:35;9.60;99.90
17172;DHT22;8701;50.150;8.756;2024-02-21T07:58:37;9.80;99.90
17172;DHT22;8701;50.150;8.756;2024-02-21T08:02:39;9.80;99.90
17172;DHT22;8701;50.150;8.756;2024-02-21T08:06:45;10.00;99.90
17172;DHT22;8701;50.150;8.756;2024-02-21T08:10:50;10.10;99.90
17172;DHT22;8701;50.150;8.756;2024-02-21T08:14:52;10.20;99.90
17172;DHT22;8701;50.150;8.756;2024-02-21T08:18:55;10.30;99.90
17172;DHT22;8701;50.150;8.756;2024-02-21T08:23:00;10.30;99.90
17172;DHT22;8701;50.150;8.756;2024-02-21T08:27:02;10.40;99.90
17172;DHT22;8701;50.150;8.756;2024-02-21T08:31:05;10.40;99.90
17172;DHT22;8701;50.150;8.756;2024-02-21T08:35:08;10.50;99.90
17172;DHT22;8701;50.150;8.756;2024-02-21T08:39:11;10.60;99.90
17172;DHT22;8701;50.150;8.756;2024-02-21T08:43:17;10.50;99.90
17172;DHT22;8701;50.150;8.756;2024-02-21T08:47:19;10.60;99.90
17172;DHT22;8701;50.150;8.756;2024-02-21T08:51:21;10.70;99.90
17172;DHT22;8701;50.150;8.756;2024-02-21T08:55:25;10.90;99.90
17172;DHT22;8701;50.150;8.756;2024-02-21T08:59:27;11.20;99.90
17172;DHT22;8701;50.150;8.756;2024-02-21T09:03:31;11.60;99.90
17172;DHT22;8701;50.150;8.756;2024-02-21T09:07:33;12.10;99.90
17172;DHT22;8701;50.150;8.756;2024-02-21T09:11:37;12.00;99.90
17172;DHT22;8701;50.150;8.756;2024-02-21T09:15:39;11.80;99.90
17172;DHT22;8701;50.150;8.756;2024-02-21T09:19:41;11.90;99.90
17172;DHT22;8701;50.150;8.756;2024-02-21T09:23:43;11.90;99.90
17172;DHT22;8701;50.150;8.756;2024-02-21T09:27:47;11.70;99.90
17172;DHT22;8701;50.150;8.756;2024-02-21T09:31:49;11.40;99.90
17172;DHT22;8701;50.150;8.756;2024-02-21T09:35:51;11.20;99.90
17172;DHT22;8701;50.150;8.756;2024-02-21T09:39:54;11.10;99.90
17172;DHT22;8701;50.150;8.756;2024-02-21T09:43:58;11.10;99.90
17172;DHT22;8701;50.150;8.756;2024-02-21T09:48:25;11.10;99.90
17172;DHT22;8701;50.150;8.756;2024-02-21T09:52:34;10.90;99.90
17172;DHT22;8701;50.150;8.756;2024-02-21T09:56:37;11.10;99.90
17172;DHT22;8701;50.150;8.756;2024-02-21T10:00:41;11.00;99.90
17172;DHT22;8701;50.150;8.756;2024-02-21T10:04:43;10.80;99.90
17172;DHT22;8701;50.150;8.756;2024-02-21T10:08:52;10.90;99.90
17172;DHT22;8701;50.150;8.756;2024-02-21T10:12:54;10.90;99.90
17172;DHT22;8701;50.150;8.756;2024-02-21T10:16:58;11.10;99.90
17172;DHT22;8701;50.150;8.756;2024-02-21T10:21:04;11.20;99.90
17172;DHT22;8701;50.150;8.756;2024-02-21T10:25:07;11.50;99.90
17172;DHT22;8701;50.150;8.756;2024-02-21T10:29:09;11.50;99.90
17172;DHT22;8701;50.150;8.756;2024-02-21T10:33:15;11.80;99.90
17172;DHT22;8701;50.150;8.756;2024-02-21T10:37:17;11.80;99.90
17172;DHT22;8701;50.150;8.756;2024-02-21T10:41:21;11.90;99.90
17172;DHT22;8701;50.150;8.756;2024-02-21T10:45:28;11.80;99.90
17172;DHT22;8701;50.150;8.756;2024-02-21T10:49:33;11.90;99.90
17172;DHT22;8701;50.150;8.756;2024-02-21T10:53:44;11.90;99.90
17172;DHT22;8701;50.150;8.756;2024-02-21T10:57:48;11.90;99.90
17172;DHT22;8701;50.150;8.756;2024-02-21T11:01:51;12.00;99.90
17172;DHT22;8701;50.150;8.756;2024-02-21T11:05:55;12.20;99.90
17172;DHT22;8701;50.150;8.756;2024-02-21T11:09:58;12.20;99.90
17172;DHT22;8701;50.150;8.756;2024-02-21T11:14:05;12.30;99.90
17172;DHT22;8701;50.150;8.756;2024-02-21T11:18:07;12.40;99.90
17172;DHT22;8701;50.150;8.756;2024-02-21T11:22:16;12.10;99.90
17172;DHT22;8701;50.150;8.756;2024-02-21T11:26:19;12.30;99.90
17172;DHT22;8701;50.150;8.756;2024-02-21T11:30:26;12.30;99.90
17172;DHT22;8701;50.150;8.756;2024-02-21T11:34:29;12.20;99.90
17172;DHT22;8701;50.150;8.756;2024-02-21T11:38:32;12.30;99.90
17172;DHT22;8701;50.150;8.756;2024-02-21T11:42:35;12.30;99.90
17172;DHT22;8701;50.150;8.756;2024-02-21T11:46:38;12.30;99.90
17172;DHT22;8701;50.150;8.756;2024-02-21T11:50:41;12.40;99.90
17172;DHT22;8701;50.150;8.756;2024-02-21T11:54:44;12.30;99.90
17172;DHT22;8701;50.150;8.756;2024-02-21T11:58:47;12.40;99.90
17172;DHT22;8701;50.150;8.756;2024-02-21T12:02:49;12.50;99.90
17172;DHT22;8701;50.150;8.756;2024-02-21T12:06:52;12.80;99.90
17172;DHT22;8701;50.150;8.756;2024-02-21T12:10:56;13.10;99.90
17172;DHT22;8701;50.150;8.756;2024-02-21T12:14:58;13.00;99.90
17172;DHT22;8701;50.150;8.756;2024-02-21T12:19:00;12.70;99.90
17172;DHT22;8701;50.150;8.756;2024-02-21T12:23:03;12.50;99.90
17172;DHT22;8701;50.150;8.756;2024-02-21T12:27:07;12.50;99.90
17172;DHT22;8701;50.150;8.756;2024-02-21T12:31:10;12.40;99.90
17172;DHT22;8701;50.150;8.756;2024-02-21T12:35:12;12.20;99.90
17172;DHT22;8701;50.150;8.756;2024-02-21T12:39:15;12.30;99.90
17172;DHT22;8701;50.150;8.756;2024-02-21T12:43:19;12.40;99.90
17172;DHT22;8701;50.150;8.756;2024-02-21T12:47:23;12.70;99.90
17172;DHT22;8701;50.150;8.756;2024-02-21T12:51:27;13.10;99.90
17172;DHT22;8701;50.150;8.756;2024-02-21T12:55:30;13.20;99.90
17172;DHT22;8701;50.150;8.756;2024-02-21T12:59:33;13.30;99.90
17172;DHT22;8701;50.150;8.756;2024-02-21T13:03:36;13.20;99.90
17172;DHT22;8701;50.150;8.756;2024-02-21T13:07:38;12.60;99.90
17172;DHT22;8701;50.150;8.756;2024-02-21T13:11:41;12.60;99.90
17172;DHT22;8701;50.150;8.756;2024-02-21T13:15:47;12.50;99.90
17172;DHT22;8701;50.150;8.756;2024-02-21T13:19:49;12.40;99.90
17172;DHT22;8701;50.150;8.756;2024-02-21T13:23:51;12.20;99.90
17172;DHT22;8701;50.150;8.756;2024-02-21T13:27:54;12.30;99.90
17172;DHT22;8701;50.150;8.756;2024-02-21T13:31:58;12.30;99.90
17172;DHT22;8701;50.150;8.756;2024-02-21T13:36:00;12.30;99.90
17172;DHT22;8701;50.150;8.756;2024-02-21T13:40:03;12.30;99.90
17172;DHT22;8701;50.150;8.756;2024-02-21T13:44:06;12.20;99.90
17172;DHT22;8701;50.150;8.756;2024-02-21T13:48:09;12.20;99.90
17172;DHT22;8701;50.150;8.756;2024-02-21T13:52:15;12.20;99.90
17172;DHT22;8701;50.150;8.756;2024-02-21T13:56:18;12.40;99.90
17172;DHT22;8701;50.150;8.756;2024-02-21T14:00:20;12.40;99.90
17172;DHT22;8701;50.150;8.756;2024-02-21T14:04:24;12.60;99.90
17172;DHT22;8701;50.150;8.756;2024-02-21T14:08:26;12.90;99.90
17172;DHT22;8701;50.150;8.756;2024-02-21T14:12:28;13.10;99.90
17172;DHT22;8701;50.150;8.756;2024-02-21T14:16:30;13.40;99.90
17172;DHT22;8701;50.150;8.756;2024-02-21T14:20:34;13.30;99.90
17172;DHT22;8701;50.150;8.756;2024-02-21T14:24:36;13.10;99.90
17172;DHT22;8701;50.150;8.756;2024-02-21T14:28:38;12.80;99.90
17172;DHT22;8701;50.150;8.756;2024-02-21T14:32:44;12.80;99.90
17172;DHT22;8701;50.150;8.756;2024-02-21T14:36:47;12.60;99.90
17172;DHT22;8701;50.150;8.756;2024-02-21T14:40:50;12.60;99.90
17172;DHT22;8701;50.150;8.756;2024-02-21T14:44:52;12.50;99.90
17172;DHT22;8701;50.150;8.756;2024-02-21T14:48:54;12.50;99.90
17172;DHT22;8701;50.150;8.756;2024-02-21T14:52:58;12.40;99.90
17172;DHT22;8701;50.150;8.756;2024-02-21T14:57:00;12.40;99.90
17172;DHT22;8701;50.150;8.756;2024-02-21T15:01:03;12.40;99.90
17172;DHT22;8701;50.150;8.756;2024-02-21T15:05:06;12.30;99.90
17172;DHT22;8701;50.150;8.756;2024-02-21T15:09:09;12.20;99.90
17172;DHT22;8701;50.150;8.756;2024-02-21T15:13:12;12.20;99.90
17172;DHT22;8701;50.150;8.756;2024-02-21T15:17:15;12.20;99.90
17172;DHT22;8701;50.150;8.756;2024-02-21T15:21:17;12.30;99.90
17172;DHT22;8701;50.150;8.756;2024-02-21T15:25:21;12.20;99.90
17172;DHT22;8701;50.150;8.756;2024-02-21T15:29:23;12.00;99.90
17172;DHT22;8701;50.150;8.756;2024-02-21T15:33:25;11.90;99.90
17172;DHT22;8701;50.150;8.756;2024-02-21T15:37:28;11.80;99.90
17172;DHT22;8701;50.150;8.756;2024-02-21T15:41:32;11.70;99.90
17172;DHT22;8701;50.150;8.756;2024-02-21T15:45:34;11.60;99.90
17172;DHT22;8701;50.150;8.756;2024-02-21T15:49:37;11.60;99.90
17172;DHT22;8701;50.150;8.756;2024-02-21T15:53:39;11.60;99.90
17172;DHT22;8701;50.150;8.756;2024-02-21T15:57:47;11.50;99.90
17172;DHT22;8701;50.150;8.756;2024-02-21T16:01:50;11.50;99.90
17172;DHT22;8701;50.150;8.756;2024-02-21T16:05:52;11.60;99.90
17172;DHT22;8701;50.150;8.756;2024-02-21T16:09:55;11.60;99.90
17172;DHT22;8701;50.150;8.756;2024-02-21T16:14:00;11.50;99.90
17172;DHT22;8701;50.150;8.756;2024-02-21T16:18:03;11.40;99.90
17172;DHT22;8701;50.150;8.756;2024-02-21T16:22:06;11.40;99.90
17172;DHT22;8701;50.150;8.756;2024-02-21T16:26:09;11.30;99.90
17172;DHT22;8701;50.150;8.756;2024-02-21T16:30:14;11.30;99.90
17172;DHT22;8701;50.150;8.756;2024-02-21T16:34:17;11.30;99.90
17172;DHT22;8701;50.150;8.756;2024-02-21T16:38:19;11.30;99.90
17172;DHT22;8701;50.150;8.756;2024-02-21T16:42:22;11.20;99.90
17172;DHT22;8701;50.150;8.756;2024-02-21T16:46:26;11.20;99.90
17172;DHT22;8701;50.150;8.756;2024-02-21T16:50:28;11.10;99.90
17172;DHT22;8701;50.150;8.756;2024-02-21T16:54:30;10.90;99.90
17172;DHT22;8701;50.150;8.756;2024-02-21T16:58:33;10.90;99.90
17172;DHT22;8701;50.150;8.756;2024-02-21T17:02:39;10.90;99.90
17172;DHT22;8701;50.150;8.756;2024-02-21T17:06:42;10.90;99.90
17172;DHT22;8701;50.150;8.756;2024-02-21T17:10:44;10.90;99.90
17172;DHT22;8701;50.150;8.756;2024-02-21T17:14:46;10.80;99.90
17172;DHT22;8701;50.150;8.756;2024-02-21T17:18:50;10.80;99.90
17172;DHT22;8701;50.150;8.756;2024-02-21T17:22:53;10.80;99.90
17172;DHT22;8701;50.150;8.756;2024-02-21T17:26:55;10.80;99.90
17172;DHT22;8701;50.150;8.756;2024-02-21T17:30:57;10.80;99.90
17172;DHT22;8701;50.150;8.756;2024-02-21T17:35:01;10.80;99.90
17172;DHT22;8701;50.150;8.756;2024-02-21T17:39:05;10.80;99.90
17172;DHT22;8701;50.150;8.756;2024-02-21T17:43:08;10.80;99.90
17172;DHT22;8701;50.150;8.756;2024-02-21T17:47:11;10.80;99.90
17172;DHT22;8701;50.150;8.756;2024-02-21T17:51:15;10.90;99.90
17172;DHT22;8701;50.150;8.756;2024-02-21T17:55:17;10.80;99.90
17172;DHT22;8701;50.150;8.756;2024-02-21T17:59:20;11.00;99.90
17172;DHT22;8701;50.150;8.756;2024-02-21T18:03:22;10.90;99.90
17172;DHT22;8701;50.150;8.756;2024-02-21T18:07:28;11.00;99.90
17172;DHT22;8701;50.150;8.756;2024-02-21T18:11:33;10.90;99.90
17172;DHT22;8701;50.150;8.756;2024-02-21T18:15:35;10.90;99.90
17172;DHT22;8701;50.150;8.756;2024-02-21T18:19:37;10.80;99.90
17172;DHT22;8701;50.150;8.756;2024-02-21T18:23:41;10.70;99.90
17172;DHT22;8701;50.150;8.756;2024-02-21T18:27:43;10.70;99.90
17172;DHT22;8701;50.150;8.756;2024-02-21T18:31:45;10.80;99.90
17172;DHT22;8701;50.150;8.756;2024-02-21T18:35:47;10.80;99.90
17172;DHT22;8701;50.150;8.756;2024-02-21T18:39:51;10.80;99.90
17172;DHT22;8701;50.150;8.756;2024-02-21T18:43:54;10.90;99.90
17172;DHT22;8701;50.150;8.756;2024-02-21T18:47:57;11.00;99.90
17172;DHT22;8701;50.150;8.756;2024-02-21T18:52:00;10.90;99.90
17172;DHT22;8701;50.150;8.756;2024-02-21T18:56:05;10.90;99.90
17172;DHT22;8701;50.150;8.756;2024-02-21T19:00:08;10.90;99.90
17172;DHT22;8701;50.150;8.756;2024-02-21T19:04:14;11.00;99.90
17172;DHT22;8701;50.150;8.756;2024-02-21T19:08:16;11.00;99.90
17172;DHT22;8701;50.150;8.756;2024-02-21T19:12:20;11.00;99.90
17172;DHT22;8701;50.150;8.756;2024-02-21T19:16:22;11.00;99.90
17172;DHT22;8701;50.150;8.756;2024-02-21T19:20:24;10.90;99.90
17172;DHT22;8701;50.150;8.756;2024-02-21T19:24:26;11.00;99.90
17172;DHT22;8701;50.150;8.756;2024-02-21T19:28:30;10.90;99.90
17172;DHT22;8701;50.150;8.756;2024-02-21T19:32:32;10.90;99.90
17172;DHT22;8701;50.150;8.756;2024-02-21T19:36:34;10.90;99.90
17172;DHT22;8701;50.150;8.756;2024-02-21T19:40:39;10.90;99.90
17172;DHT22;8701;50.150;8.756;2024-02-21T19:44:43;10.90;99.90
17172;DHT22;8701;50.150;8.756;2024-02-21T19:48:46;10.90;99.90
17172;DHT22;8701;50.150;8.756;2024-02-21T19:52:50;10.90;99.90
17172;DHT22;8701;50.150;8.756;2024-02-21T19:56:53;10.90;99.90
17172;DHT22;8701;50.150;8.756;2024-02-21T20:00:58;10.90;99.90
17172;DHT22;8701;50.150;8.756;2024-02-21T20:05:00;10.90;99.90
17172;DHT22;8701;50.150;8.756;2024-02-21T20:09:03;10.80;99.90
17172;DHT22;8701;50.150;8.756;2024-02-21T20:13:07;10.70;99.90
17172;DHT22;8701;50.150;8.756;2024-02-21T20:17:11;10.50;99.90
17172;DHT22;8701;50.150;8.756;2024-02-21T20:21:13;10.40;99.90
17172;DHT22;8701;50.150;8.756;2024-02-21T20:25:17;10.30;99.90
17172;DHT22;8701;50.150;8.756;2024-02-21T20:29:20;10.20;99.90
17172;DHT22;8701;50.150;8.756;2024-02-21T20:33:25;10.20;99.90
17172;DHT22;8701;50.150;8.756;2024-02-21T20:37:27;10.10;99.90
17172;DHT22;8701;50.150;8.756;2024-02-21T20:41:30;10.00;99.90
17172;DHT22;8701;50.150;8.756;2024-02-21T20:45:32;10.00;99.90
17172;DHT22;8701;50.150;8.756;2024-02-21T20:49:36;9.80;99.90
17172;DHT22;8701;50.150;8.756;2024-02-21T20:53:39;9.80;99.90
17172;DHT22;8701;50.150;8.756;2024-02-21T20:57:41;9.70;99.90
17172;DHT22;8701;50.150;8.756;2024-02-21T21:01:43;9.70;99.90
17172;DHT22;8701;50.150;8.756;2024-02-21T21:05:47;9.60;99.90
17172;DHT22;8701;50.150;8.756;2024-02-21T21:09:49;9.50;99.90
17172;DHT22;8701;50.150;8.756;2024-02-21T21:13:52;9.50;99.90
17172;DHT22;8701;50.150;8.756;2024-02-21T21:17:54;9.50;99.90
17172;DHT22;8701;50.150;8.756;2024-02-21T21:21:58;9.50;99.90
17172;DHT22;8701;50.150;8.756;2024-02-21T21:26:01;9.50;99.90
17172;DHT22;8701;50.150;8.756;2024-02-21T21:30:06;9.50;99.90
17172;DHT22;8701;50.150;8.756;2024-02-21T21:34:08;9.40;99.90
17172;DHT22;8701;50.150;8.756;2024-02-21T21:38:11;9.50;99.90
17172;DHT22;8701;50.150;8.756;2024-02-21T21:42:15;9.40;99.90
17172;DHT22;8701;50.150;8.756;2024-02-21T21:46:17;9.40;99.90
17172;DHT22;8701;50.150;8.756;2024-02-21T21:50:19;9.40;99.90
17172;DHT22;8701;50.150;8.756;2024-02-21T21:54:23;9.40;99.90
17172;DHT22;8701;50.150;8.756;2024-02-21T21:58:26;9.40;99.90
17172;DHT22;8701;50.150;8.756;2024-02-21T22:02:28;9.50;99.90
17172;DHT22;8701;50.150;8.756;2024-02-21T22:06:30;9.40;99.90
17172;DHT22;8701;50.150;8.756;2024-02-21T22:10:34;9.40;99.90
17172;DHT22;8701;50.150;8.756;2024-02-21T22:14:37;9.40;99.90
17172;DHT22;8701;50.150;8.756;2024-02-21T22:18:40;9.40;99.90
17172;DHT22;8701;50.150;8.756;2024-02-21T22:22:43;9.30;99.90
17172;DHT22;8701;50.150;8.756;2024-02-21T22:26:46;9.30;99.90
17172;DHT22;8701;50.150;8.756;2024-02-21T22:30:51;9.40;99.90
17172;DHT22;8701;50.150;8.756;2024-02-21T22:34:53;9.40;99.90
17172;DHT22;8701;50.150;8.756;2024-02-21T22:38:56;9.40;99.90
17172;DHT22;8701;50.150;8.756;2024-02-21T22:43:00;9.40;99.90
17172;DHT22;8701;50.150;8.756;2024-02-21T22:47:03;9.40;99.90
17172;DHT22;8701;50.150;8.756;2024-02-21T22:51:06;9.40;99.90
17172;DHT22;8701;50.150;8.756;2024-02-21T22:55:10;9.40;99.90
17172;DHT22;8701;50.150;8.756;2024-02-21T22:59:14;9.40;99.90
17172;DHT22;8701;50.150;8.756;2024-02-21T23:03:16;9.30;99.90
17172;DHT22;8701;50.150;8.756;2024-02-21T23:07:20;9.30;99.90
17172;DHT22;8701;50.150;8.756;2024-02-21T23:11:23;9.30;99.90
17172;DHT22;8701;50.150;8.756;2024-02-21T23:15:28;9.30;99.90
17172;DHT22;8701;50.150;8.756;2024-02-21T23:19:30;9.40;99.90
17172;DHT22;8701;50.150;8.756;2024-02-21T23:23:32;9.60;99.90
17172;DHT22;8701;50.150;8.756;2024-02-21T23:27:35;9.40;99.90
17172;DHT22;8701;50.150;8.756;2024-02-21T23:31:39;9.30;99.90
17172;DHT22;8701;50.150;8.756;2024-02-21T23:35:42;9.40;99.90
17172;DHT22;8701;50.150;8.756;2024-02-21T23:39:44;9.30;99.90
17172;DHT22;8701;50.150;8.756;2024-02-21T23:43:47;9.40;99.90
17172;DHT22;8701;50.150;8.756;2024-02-21T23:47:51;9.40;99.90
17172;DHT22;8701;50.150;8.756;2024-02-21T23:51:53;9.40;99.90
17172;DHT22;8701;50.150;8.756;2024-02-21T23:55:56;9.30;99.90
17172;DHT22;8701;50.150;8.756;2024-02-21T23:59:58;9.40;99.90
